Latest Weather Observations for Yarrawonga

IDV60801

Issued at 11:02 am EST Saturday 5 September 2015 (issued every 30 minutes, with the page automatically refreshed every 10 minutes)

About weather observations | Map of weather stations | Latest weather observations for VIC | Other Formats
Station Details ID: 081124 Name: YARRAWONGA Lat: -36.03 Lon: 146.03 Height: 128.9 m
Data from the previous 72 hours. | See also: Recent months at Yarrawonga
Date/Time
EST
Temp
°C
App
Temp
°C
Dew
Point
Rel
Hum
%
Delta-T
°C
Wind Press
QNH
hPa
Press
MSL
hPa
Rain
since 9 am
mm
Dir
 
Spd
km/h
Gust
km/h
Spd
kts
Gust
kts
05/11:00am 12.6 11.9 8.5 76 2.0 S 2 6 1 3 1023.7 1023.7 0.0
05/10:30am 11.6 10.3 7.7 77 1.9 ESE 4 6 2 3 1023.8 1023.8 0.0
05/10:00am 11.0 9.4 8.2 83 1.4 ESE 6 9 3 5 1024.0 1024.0 0.0
05/09:30am 9.4 8.0 7.2 86 1.0 SE 4 6 2 3 1024.1 1024.1 0.0
05/09:00am 8.3 7.1 6.3 87 0.9 SE 2 4 1 2 1024.1 1024.1 0.0
05/08:30am 5.6 4.5 5.0 96 0.3 CALM 0 0 0 0 1024.1 1024.1 0.0
05/08:00am 4.0 2.3 3.9 99 0.0 SW 2 4 1 2 1023.8 1023.8 0.0
05/07:30am 2.3 0.7 2.2 99 0.0 CALM 0 0 0 0 1023.5 1023.5 0.0
05/07:00am 0.8 -1.1 0.7 99 0.0 CALM 0 0 0 0 1023.2 1023.2 0.0
05/06:30am 0.2 -1.8 -0.1 98 0.1 CALM 0 0 0 0 1022.8 1022.9 0.0
05/06:00am -0.1 -2.1 -0.4 98 0.1 CALM 0 2 0 1 1022.5 1022.6 0.0
05/05:30am 0.6 -2.1 0.3 98 0.1 SW 4 6 2 3 1022.2 1022.3 0.0
05/05:00am 0.8 -2.2 0.5 98 0.1 WSW 6 6 3 3 1021.9 1022.0 0.0
05/04:30am 0.8 -2.2 0.5 98 0.1 SW 6 7 3 4 1021.7 1021.8 0.0
05/04:00am 0.9 -2.3 0.6 98 0.1 SW 7 7 4 4 1021.7 1021.8 0.0
05/03:30am 1.7 -0.8 1.4 98 0.1 SW 4 4 2 2 1021.5 1021.6 0.0
05/03:00am 1.5 -1.5 1.1 97 0.2 SW 6 6 3 3 1021.6 1021.7 0.0
05/02:30am 1.7 -1.2 1.3 97 0.2 W 6 9 3 5 1021.9 1022.0 0.0
05/02:00am 1.8 -1.3 1.2 96 0.2 WSW 7 9 4 5 1022.1 1022.2 0.0
05/01:30am 1.6 -1.6 1.0 96 0.2 W 7 9 4 5 1022.2 1022.3 0.0
05/01:00am 2.3 -1.1 1.7 96 0.2 WSW 9 9 5 5 1022.3 1022.4 0.0
05/12:30am 2.4 -1.0 1.8 96 0.2 WSW 9 11 5 6 1022.7 1022.8 0.0
05/12:00am 3.3 0.4 2.6 95 0.3 W 7 9 4 5 1022.7 1022.8 0.0
 
Date/Time
EST
Temp
°C
App
Temp
°C
Dew
Point
Rel
Hum
%
Delta-T
°C
Wind Press
QNH
hPa
Press
MSL
hPa
Rain
since 9 am
mm
Dir
 
Spd
km/h
Gust
km/h
Spd
kts
Gust
kts
04/11:30pm 4.1 0.9 3.1 93 0.4 W 9 13 5 7 1022.8 1022.9 0.0
04/11:00pm 4.2 1.0 3.2 93 0.4 W 9 9 5 5 1022.9 1023.0 0.0
04/10:30pm 4.9 1.8 3.6 91 0.5 W 9 13 5 7 1023.1 1023.1 0.0
04/10:00pm 4.7 1.9 3.2 90 0.6 WSW 7 11 4 6 1022.9 1023.0 0.0
04/09:30pm 6.1 2.7 4.1 87 0.9 W 11 13 6 7 1022.8 1022.9 0.0
04/09:00pm 6.7 3.0 4.4 85 1.0 W 13 15 7 8 1022.8 1022.9 0.0
04/08:30pm 7.2 3.5 4.5 83 1.2 WSW 13 17 7 9 1022.8 1022.9 0.0
04/08:00pm 8.0 4.7 4.6 79 1.5 W 11 15 6 8 1022.6 1022.7 0.0
04/07:30pm 8.6 5.8 5.2 79 1.5 W 9 13 5 7 1022.6 1022.7 0.0
04/07:00pm 9.2 6.6 5.9 80 1.5 W 9 11 5 6 1022.4 1022.5 0.0
04/06:30pm 9.9 7.3 6.3 78 1.7 W 9 11 5 6 1022.2 1022.3 0.0
04/06:00pm 10.8 8.3 6.4 74 2.1 W 9 11 5 6 1022.0 1022.1 0.0
04/05:30pm 12.6 10.1 6.6 67 2.9 WSW 9 11 5 6 1021.8 1021.9 0.0
04/05:00pm 13.8 11.4 6.9 63 3.4 WSW 9 13 5 7 1021.4 1021.5 0.0
04/04:30pm 14.4 11.2 5.0 53 4.4 WSW 11 17 6 9 1021.3 1021.4 0.0
04/04:00pm 14.9 11.1 6.0 55 4.3 WSW 15 19 8 10 1021.3 1021.4 0.0
04/03:30pm 15.3 11.8 7.1 58 4.1 WSW 15 20 8 11 1021.3 1021.4 0.0
04/03:00pm 15.2 12.1 7.3 59 3.9 WSW 13 19 7 10 1021.4 1021.5 0.0
04/02:30pm 15.2 12.0 7.0 58 4.0 WSW 13 17 7 9 1021.4 1021.5 0.0
04/02:00pm 14.8 12.0 6.9 59 3.9 WSW 11 19 6 10 1021.6 1021.7 0.0
04/01:30pm 14.7 11.3 7.7 63 3.5 SW 15 19 8 10 1021.8 1021.9 0.0
04/01:00pm 14.8 11.9 8.1 64 3.4 WSW 13 19 7 10 1022.2 1022.3 0.0
04/12:30pm 14.2 12.0 7.9 66 3.1 SW 9 15 5 8 1022.5 1022.6 0.0
04/12:00pm 14.3 12.3 8.7 69 2.8 WSW 9 15 5 8 1022.9 1023.0 0.0
04/11:30am 13.3 11.6 8.2 71 2.5 WSW 7 13 4 7 1023.1 1023.1 0.0
04/11:00am 12.1 10.2 6.6 69 2.6 SSW 6 9 3 5 1023.3 1023.3 0.0
04/10:30am 12.2 10.0 7.7 74 2.2 SSW 9 15 5 8 1023.4 1023.4 0.0
04/10:00am 10.8 8.2 6.0 72 2.2 SSW 9 13 5 7 1023.4 1023.4 0.0
04/09:30am 9.8 7.2 6.2 78 1.7 SW 9 13 5 7 1023.4 1023.4 0.0
04/09:00am 8.7 5.9 5.3 79 1.5 SSW 9 13 5 7 1023.5 1023.5 0.2
04/08:30am 7.3 4.8 5.0 85 1.0 SW 7 11 4 6 1023.5 1023.5 0.2
04/08:00am 5.5 2.4 3.8 89 0.7 WSW 9 13 5 7 1023.2 1023.2 0.2
04/07:30am 4.3 1.6 3.6 95 0.3 WSW 7 11 4 6 1022.7 1022.8 0.2
04/07:00am 2.6 -0.8 2.0 96 0.2 WSW 9 9 5 5 1022.4 1022.5 0.2
04/06:30am 2.1 -1.3 1.7 97 0.2 WSW 9 11 5 6 1022.1 1022.2 0.2
04/06:00am 2.3 -1.1 1.7 96 0.2 WSW 9 11 5 6 1021.9 1022.0 0.0
04/05:30am 2.5 -0.5 1.9 96 0.2 SW 7 9 4 5 1021.6 1021.7 0.0
04/05:00am 3.0 -0.3 2.4 96 0.2 WSW 9 11 5 6 1021.2 1021.3 0.0
04/04:30am 2.9 -0.4 2.3 96 0.2 WSW 9 9 5 5 1021.1 1021.2 0.0
04/04:00am 3.9 0.3 3.2 95 0.3 WSW 11 13 6 7 1021.0 1021.1 0.0
04/03:30am 4.5 1.4 3.6 94 0.4 WSW 9 13 5 7 1021.0 1021.1 0.0
04/03:00am 4.6 1.1 3.4 92 0.5 WSW 11 13 6 7 1020.8 1020.9 0.0
04/02:30am 4.9 1.4 3.7 92 0.5 SW 11 13 6 7 1020.7 1020.8 0.0
04/02:00am 5.5 2.1 4.2 91 0.6 SW 11 13 6 7 1020.7 1020.8 0.0
04/01:30am 5.8 2.9 4.8 93 0.4 SW 9 15 5 8 1020.8 1020.9 0.0
04/01:00am 5.8 1.8 4.9 94 0.4 WSW 15 17 8 9 1020.9 1021.0 0.0
04/12:30am 6.4 2.9 5.4 93 0.4 WSW 13 17 7 9 1020.7 1020.8 0.0
04/12:00am 6.9 3.5 6.0 94 0.4 WSW 13 17 7 9 1020.6 1020.7 0.0
 
Date/Time
EST
Temp
°C
App
Temp
°C
Dew
Point
Rel
Hum
%
Delta-T
°C
Wind Press
QNH
hPa
Press
MSL
hPa
Rain
since 9 am
mm
Dir
 
Spd
km/h
Gust
km/h
Spd
kts
Gust
kts
03/11:30pm 7.3 4.3 6.2 93 0.5 WSW 11 13 6 7 1020.3 1020.4 0.0
03/11:00pm 7.2 4.6 6.1 93 0.5 WSW 9 11 5 6 1020.1 1020.2 0.0
03/10:30pm 7.9 4.6 6.5 91 0.6 WSW 13 17 7 9 1019.8 1019.9 0.0
03/10:00pm 8.8 4.9 7.1 89 0.8 SW 17 24 9 13 1019.3 1019.4 0.0
03/09:30pm 8.9 5.1 7.7 92 0.6 SW 17 20 9 11 1018.9 1019.0 0.0
03/09:00pm 9.4 5.8 8.2 92 0.6 SW 17 20 9 11 1018.6 1018.7 0.0
03/08:30pm 9.9 6.0 8.5 91 0.7 SW 19 24 10 13 1018.2 1018.3 0.0
03/08:00pm 10.4 6.3 8.8 90 0.8 WSW 20 24 11 13 1017.9 1017.9 0.0
03/07:30pm 11.0 7.0 8.4 84 1.3 WSW 19 20 10 11 1017.3 1017.3 0.0
03/07:00pm 11.7 7.2 8.6 81 1.5 SW 22 30 12 16 1016.9 1016.9 0.0
03/06:30pm 12.0 8.1 8.8 81 1.6 WSW 19 24 10 13 1016.2 1016.2 0.0
03/06:00pm 12.9 9.1 9.2 78 1.9 SW 19 22 10 12 1015.5 1015.5 0.0
03/05:30pm 14.4 10.4 9.0 70 2.8 SW 20 26 11 14 1014.8 1014.9 0.0
03/05:00pm 15.6 11.2 8.8 64 3.5 WSW 22 30 12 16 1014.4 1014.5 0.0
03/04:30pm 16.2 10.4 9.4 64 3.5 SW 30 37 16 20 1013.6 1013.7 0.0
03/04:00pm 17.2 12.7 9.9 62 3.9 SW 24 32 13 17 1013.2 1013.3 0.0
03/03:30pm 17.9 13.1 9.0 56 4.7 SSW 24 32 13 17 1012.6 1012.7 0.0
03/03:00pm 18.5 14.5 9.0 54 5.0 SSW 20 30 11 16 1012.1 1012.2 0.0
03/02:30pm 18.0 13.9 8.8 55 4.8 SSW 20 28 11 15 1011.6 1011.7 0.0
03/02:00pm 17.5 13.7 9.2 58 4.4 SW 19 26 10 14 1011.5 1011.5 0.0
03/01:30pm 16.9 13.5 9.1 60 4.1 SSW 17 28 9 15 1011.4 1011.4 0.0
03/01:00pm 16.7 13.0 9.4 62 3.8 SSW 19 32 10 17 1011.7 1011.8 0.0
03/12:30pm 15.7 12.3 9.1 65 3.4 SSW 17 26 9 14 1011.7 1011.8 0.0
03/12:00pm 14.7 11.1 9.7 72 2.6 SSW 19 26 10 14 1011.6 1011.7 0.0
03/11:30am 13.8 11.3 9.8 77 2.1 SSW 13 17 7 9 1011.2 1011.2 0.0
03/11:00am 13.5 10.6 10.9 84 1.4 SSW 17 22 9 12 1011.1 1011.1 0.0
03/10:30am 12.1 10.1 10.3 89 0.9 SSW 11 19 6 10 1010.7 1010.7 0.0
03/10:00am 11.1 9.9 10.2 94 0.5 SW 7 9 4 5 1010.3 1010.3 0.0
03/09:30am 10.7 9.1 10.2 97 0.3 SW 9 11 5 6 1009.9 1009.9 0.0
03/09:00am 10.6 8.2 10.1 97 0.3 WSW 13 17 7 9 1009.4 1009.4 19.2
03/08:30am 10.1 9.0 10.0 99 0.1 W 6 9 3 5 1008.7 1008.7 19.2
03/08:00am 9.6 7.4 9.5 99 0.1 WSW 11 15 6 8 1008.2 1008.2 19.2
03/07:30am 9.3 7.5 9.3 100 0.0 SSW 9 13 5 7 1008.1 1008.1 19.0
03/07:00am 9.2 7.9 9.2 100 0.0 SW 6 7 3 4 1007.5 1007.5 18.8
03/06:30am 9.2 7.7 9.2 100 0.0 SSW 7 9 4 5 1007.0 1007.0 18.4
03/06:00am 9.3 7.5 9.3 100 0.0 SSW 9 11 5 6 1006.5 1006.6 16.6
03/05:30am 9.3 7.8 9.3 100 0.0 S 7 9 4 5 1006.1 1006.2 15.4
03/05:00am 9.4 8.5 9.4 100 0.0 S 4 6 2 3 1005.7 1005.8 14.2
03/04:30am 9.4 8.5 9.4 100 0.0 SSE 4 6 2 3 1005.3 1005.4 13.4
03/04:00am 9.3 8.4 9.3 100 0.0 SE 4 6 2 3 1005.1 1005.2 12.4
03/03:30am 9.4 8.1 9.3 99 0.0 ENE 6 7 3 4 1005.0 1005.0 12.0
03/03:00am 9.6 8.4 9.5 99 0.1 E 6 9 3 5 1005.0 1005.0 11.6
03/02:30am 9.8 8.6 9.7 99 0.1 ESE 6 7 3 4 1005.1 1005.2 11.4
03/02:00am 10.0 9.3 9.9 99 0.1 E 4 6 2 3 1005.6 1005.7 11.4
03/01:30am 10.1 8.1 10.0 99 0.1 ESE 11 15 6 8 1005.5 1005.6 11.4
03/01:00am 10.3 8.3 10.0 98 0.2 E 11 17 6 9 1005.7 1005.8 11.2
03/12:30am 10.4 7.6 10.1 98 0.2 E 15 22 8 12 1005.9 1006.0 10.8
03/12:00am 10.5 7.8 10.2 98 0.2 E 15 20 8 11 1006.0 1006.1 10.4
 
Date/Time
EST
Temp
°C
App
Temp
°C
Dew
Point
Rel
Hum
%
Delta-T
°C
Wind Press
QNH
hPa
Press
MSL
hPa
Rain
since 9 am
mm
Dir
 
Spd
km/h
Gust
km/h
Spd
kts
Gust
kts
02/11:30pm 10.6 7.1 10.1 97 0.3 E 19 26 10 14 1005.9 1006.0 10.2
02/11:00pm 10.5 6.8 10.2 98 0.2 ESE 20 28 11 15 1006.0 1006.1 10.2
02/10:30pm 10.6 7.5 10.4 99 0.1 ESE 17 24 9 13 1006.4 1006.5 10.2
02/10:00pm 10.7 7.3 10.5 99 0.1 E 19 28 10 15 1006.7 1006.8 9.2
02/09:49pm 10.8 6.8 10.6 99 0.1 ESE 22 33 12 18 1005.9 1006.0 9.0
02/09:30pm 11.0 9.6 10.8 99 0.1 E 9 15 5 8 1007.3 1007.3 9.0
02/09:00pm 11.0 10.1 10.7 98 0.2 E 6 9 3 5 1007.7 1007.7 8.2
02/08:30pm 10.9 10.7 10.6 98 0.2 ESE 2 4 1 2 1008.2 1008.2 7.2
02/08:00pm 11.2 11.4 10.7 97 0.3 CALM 0 0 0 0 1008.3 1008.3 6.8
02/07:30pm 11.5 11.8 11.0 97 0.3 CALM 0 2 0 1 1008.1 1008.1 5.8
02/07:00pm 11.8 11.3 10.9 94 0.5 NE 4 6 2 3 1007.9 1007.9 2.6
02/06:30pm 12.1 10.3 10.7 91 0.7 ENE 11 13 6 7 1007.4 1007.4 0.8
02/06:00pm 12.4 10.4 10.3 87 1.1 ENE 11 13 6 7 1007.2 1007.2 0.0
02/05:30pm 12.9 11.3 10.3 84 1.4 E 9 11 5 6 1007.0 1007.0 0.0
02/05:00pm 13.6 12.1 10.6 82 1.6 ENE 9 11 5 6 1007.2 1007.2 0.0
02/04:30pm 13.9 12.7 10.3 79 1.9 ENE 7 9 4 5 1007.3 1007.3 0.0
02/04:00pm 14.5 11.6 9.7 73 2.5 ENE 15 19 8 10 1007.5 1007.5 0.0
02/03:30pm 15.3 11.3 9.2 67 3.2 ENE 20 33 11 18 1007.7 1007.7 0.0
02/03:00pm 15.6 10.9 9.3 66 3.3 ENE 24 33 13 18 1007.6 1007.6 0.0
02/02:30pm 16.1 11.3 8.8 62 3.8 ENE 24 33 13 18 1008.1 1008.1 0.0
02/02:00pm 17.1 12.4 9.3 60 4.1 ENE 24 33 13 18 1008.3 1008.3 0.0
02/01:30pm 17.1 12.7 10.5 65 3.5 ENE 24 32 13 17 1009.3 1009.3 0.0
02/01:00pm 16.3 11.5 9.0 62 3.8 ENE 24 39 13 21 1009.9 1009.9 0.0
02/12:30pm 16.0 11.2 9.0 63 3.6 ENE 24 35 13 19 1010.9 1010.9 0.0
02/12:00pm 15.3 10.6 9.2 67 3.2 ENE 24 32 13 17 1011.8 1011.9 0.0
02/11:30am 14.9 10.7 9.7 71 2.7 ENE 22 32 12 17 1012.5 1012.6 0.0

Other Formats:

Comma delimited format used in spreadsheet applications
http://www.bom.gov.au/fwo/IDV60801/IDV60801.94862.axf

JavaScript Object Notation format (JSON) in row-major order
http://www.bom.gov.au/fwo/IDV60801/IDV60801.94862.json